Date,TemperatureHighF,TemperatureAvgF,TemperatureLowF,DewpointHighF,DewpointAvgF,DewpointLowF,HumidityHigh,HumidityAvg,HumidityLow,PressureMaxIn,PressureMinIn,WindSpeedMaxMPH,WindSpeedAvgMPH,GustSpeedMaxMPH,PrecipitationSumIn
2013-2-1,70,48,30,37,31,25,94,60,21,30.40,30.27,2,0,6,0.00
2013-2-2,72,50,31,48,37,27,95,67,28,30.36,30.18,2,0,7,0.00
2013-2-3,71,50,32,52,39,30,97,70,33,30.23,30.08,3,0,8,0.00
2013-2-4,69,50,32,47,35,29,96,64,27,30.18,30.07,2,0,5,0.00
2013-2-5,76,57,37,54,45,35,95,69,38,30.15,30.03,3,0,8,0.00
2013-2-6,77,66,56,64,59,52,89,79,62,30.17,30.07,3,0,6,0.00
2013-2-7,83,69,57,67,62,54,96,79,51,30.12,29.90,2,0,12,0.04
2013-2-8,78,67,55,64,59,53,95,78,47,30.12,29.89,2,0,9,0.00
2013-2-9,73,58,45,58,52,44,97,81,53,30.26,30.11,3,0,9,0.00
2013-2-10,79,64,48,60,55,46,93,75,48,30.32,30.21,3,0,9,0.00
2013-2-11,83,68,52,65,60,51,97,76,49,30.25,30.10,2,0,12,0.00
2013-2-12,85,72,60,68,63,59,98,77,48,30.13,29.95,3,0,10,0.00
2013-2-13,84,71,62,70,66,61,98,87,59,30.00,29.84,5,1,12,0.57
2013-2-14,65,60,54,62,58,53,98,93,75,30.10,29.96,0,0,4,0.38
2013-2-15,71,56,48,59,52,46,98,87,60,30.12,29.99,1,0,6,0.01
2013-2-16,67,53,44,53,43,27,98,71,41,30.16,29.92,4,1,11,0.00
2013-2-17,54,41,27,27,19,6,83,46,16,30.39,30.16,2,0,10,0.00
2013-2-18,68,46,24,47,34,21,93,68,33,30.42,30.26,3,0,9,0.00
2013-2-19,79,60,40,58,49,38,95,72,42,30.27,30.07,4,1,11,0.00
2013-2-20,74,62,52,58,53,49,94,74,51,30.18,30.06,2,0,7,0.00
2013-2-21,84,65,49,65,58,47,96,79,50,30.15,30.04,3,0,9,0.00
2013-2-22,87,72,60,69,65,59,98,82,47,30.13,30.02,2,0,8,0.00
2013-2-23,87,76,69,70,67,62,95,75,45,30.04,29.89,5,1,12,0.00
2013-2-24,78,69,61,71,65,60,98,89,76,30.01,29.90,2,0,6,0.00
2013-2-25,87,71,61,72,66,60,98,85,49,29.97,29.80,2,0,7,0.18
2013-2-26,76,70,63,72,67,60,98,91,68,29.89,29.76,4,0,11,0.15
2013-2-27,75,64,53,61,54,46,93,72,42,30.01,29.89,2,0,7,0.00
2013-2-28,74,58,42,54,47,40,97,69,38,30.04,29.89,4,1,12,0.00